Elat, Israel
Current Conditions -  °F | °C
As of 6:50 PM on Friday 28 Nov 2014 (Local Time) from LLET Reporting Station
Clear Clear  
Wind Chill: 72°   Ceiling: Unl
Heat Index: 72°   Visibility: 6mi
Dew Point: 45°   Wind: 16mph
Humidity: 38%   Direction: 30°NNE
Pressure: 30.21"   Gusts: NA
Location:  29.56°N, 34.95°E
Report Text: LLET 281550Z 03014KT CAVOK 22/07 Q1023
Loading
Personal Weather Stations






























Interactive Weather Map New forecast layout! Learn more

10-Day Weather Forecast

Advertisements
Track Severe Weather on mobile